Time;durP1;ratioP1;P1;durP2;ratioP2;P2;SDS_P1;SDS_P2;PMS_P1;PMS_P2;Temp;Humidity;BMP_temperature;BMP_pressure;BME280_temperature;BME280_humidity;BME280_pressure;Samples;Min_cycle;Max_cycle;Signal;HPM_P1;HPM_P2
2020/02/14 00:01:41;;;;;;;2.13;1.81;;;;;;;18.96;39.41;99732.02;;;;-52
2020/02/14 00:04:41;;;;;;;2.20;1.82;;;;;;;18.94;39.45;99739.97;;;;-52
2020/02/14 00:07:41;;;;;;;1.97;1.74;;;;;;;18.92;39.40;99754.05;;;;-52
2020/02/14 00:10:41;;;;;;;2.24;1.79;;;;;;;18.91;39.45;99766.40;;;;-52
2020/02/14 00:13:42;;;;;;;1.85;1.67;;;;;;;18.90;39.45;99774.46;;;;-52
2020/02/14 00:16:57;;;;;;;1.96;1.70;;;;;;;18.88;39.49;99781.41;;;;-52
2020/02/14 00:22:41;;;;;;;1.87;1.71;;;;;;;18.86;39.49;99816.17;;;;-52
2020/02/14 00:25:41;;;;;;;2.23;1.70;;;;;;;18.84;39.54;99830.32;;;;-52
2020/02/14 00:28:41;;;;;;;1.96;1.75;;;;;;;18.84;39.48;99840.53;;;;-52
2020/02/14 00:31:41;;;;;;;1.88;1.71;;;;;;;18.83;39.51;99848.16;;;;-52
2020/02/14 00:34:41;;;;;;;1.85;1.70;;;;;;;18.81;39.47;99866.17;;;;-52
2020/02/14 00:37:41;;;;;;;2.17;1.75;;;;;;;18.79;39.55;99869.41;;;;-52
2020/02/14 00:40:41;;;;;;;1.75;1.65;;;;;;;18.77;39.51;99871.88;;;;-52
2020/02/14 00:43:42;;;;;;;2.49;1.74;;;;;;;18.77;39.49;99884.09;;;;-52
2020/02/14 00:46:41;;;;;;;2.00;1.80;;;;;;;18.75;39.58;99879.73;;;;-52
2020/02/14 00:49:42;;;;;;;1.89;1.75;;;;;;;18.75;39.61;99889.77;;;;-52
2020/02/14 00:52:42;;;;;;;2.09;1.70;;;;;;;18.74;39.61;99902.45;;;;-52
2020/02/14 00:55:41;;;;;;;1.97;1.70;;;;;;;18.73;39.54;99912.61;;;;-52
2020/02/14 00:58:41;;;;;;;1.91;1.65;;;;;;;18.72;39.62;99918.53;;;;-52
2020/02/14 01:01:41;;;;;;;1.98;1.70;;;;;;;18.71;39.58;99925.68;;;;-52
2020/02/14 01:04:42;;;;;;;1.71;1.60;;;;;;;18.70;39.62;99927.88;;;;-53
2020/02/14 01:07:50;;;;;;;1.87;1.53;;;;;;;18.69;39.62;99944.90;;;;-52
2020/02/14 01:10:44;;;;;;;2.38;1.54;;;;;;;18.68;39.63;99957.84;;;;-52
2020/02/14 01:13:41;;;;;;;1.86;1.59;;;;;;;18.66;39.66;99967.86;;;;-52
2020/02/14 01:16:41;;;;;;;2.53;1.53;;;;;;;18.66;39.66;99974.55;;;;-52
2020/02/14 01:19:41;;;;;;;1.66;1.49;;;;;;;18.64;39.69;99985.28;;;;-52
2020/02/14 01:22:42;;;;;;;1.73;1.53;;;;;;;18.63;39.70;99987.91;;;;-52
2020/02/14 01:25:42;;;;;;;1.58;1.47;;;;;;;18.62;39.69;100003.36;;;;-52
2020/02/14 01:28:42;;;;;;;1.81;1.59;;;;;;;18.61;39.71;100007.80;;;;-52
2020/02/14 01:31:41;;;;;;;2.03;1.67;;;;;;;18.60;39.68;100020.06;;;;-52
2020/02/14 01:34:41;;;;;;;1.82;1.60;;;;;;;18.58;39.68;100025.84;;;;-52
2020/02/14 01:37:41;;;;;;;1.69;1.58;;;;;;;18.58;39.69;100030.42;;;;-52
2020/02/14 01:40:41;;;;;;;1.60;1.43;;;;;;;18.57;39.73;100025.40;;;;-52
2020/02/14 01:43:41;;;;;;;1.92;1.59;;;;;;;18.55;39.72;100027.16;;;;-52
2020/02/14 01:46:41;;;;;;;1.87;1.64;;;;;;;18.54;39.73;100036.20;;;;-52
2020/02/14 01:49:41;;;;;;;1.63;1.53;;;;;;;18.53;39.78;100039.84;;;;-52
2020/02/14 01:52:41;;;;;;;1.62;1.42;;;;;;;18.53;39.74;100043.69;;;;-52
2020/02/14 01:55:41;;;;;;;1.50;1.40;;;;;;;18.52;39.75;100046.55;;;;-52
2020/02/14 01:58:41;;;;;;;1.57;1.42;;;;;;;18.51;39.74;100053.14;;;;-52
2020/02/14 02:01:42;;;;;;;1.61;1.51;;;;;;;18.50;39.75;100058.11;;;;-52
2020/02/14 02:04:41;;;;;;;1.85;1.68;;;;;;;18.49;39.75;100065.27;;;;-52
2020/02/14 02:07:41;;;;;;;1.65;1.55;;;;;;;18.48;39.73;100081.27;;;;-52
2020/02/14 02:10:41;;;;;;;1.69;1.50;;;;;;;18.47;39.76;100088.09;;;;-52
2020/02/14 02:19:48;;;;;;;1.50;1.40;;;;;;;18.43;39.82;100100.45;;;;-52
2020/02/14 02:22:41;;;;;;;1.97;1.32;;;;;;;18.43;39.79;100104.63;;;;-52
2020/02/14 02:25:41;;;;;;;1.52;1.42;;;;;;;18.42;39.81;100108.27;;;;-52
2020/02/14 02:28:41;;;;;;;1.55;1.45;;;;;;;18.39;39.83;100122.45;;;;-52
2020/02/14 02:31:41;;;;;;;1.69;1.50;;;;;;;18.40;39.85;100127.51;;;;-52
2020/02/14 02:34:42;;;;;;;1.40;1.30;;;;;;;18.39;39.85;100123.12;;;;-52
2020/02/14 02:37:42;;;;;;;1.54;1.43;;;;;;;18.39;39.85;100127.70;;;;-52
2020/02/14 02:40:41;;;;;;;1.59;1.49;;;;;;;18.38;39.81;100137.84;;;;-52
2020/02/14 02:43:41;;;;;;;1.52;1.40;;;;;;;18.36;39.88;100139.31;;;;-52
2020/02/14 02:46:41;;;;;;;2.06;1.50;;;;;;;18.36;39.88;100143.88;;;;-52
2020/02/14 02:49:41;;;;;;;1.56;1.46;;;;;;;18.35;39.86;100156.55;;;;-52
2020/02/14 02:52:41;;;;;;;1.50;1.40;;;;;;;18.34;39.85;100162.02;;;;-52
2020/02/14 02:55:41;;;;;;;1.90;1.40;;;;;;;18.33;39.87;100161.14;;;;-52
2020/02/14 02:58:41;;;;;;;1.40;1.30;;;;;;;18.33;39.91;100172.51;;;;-52
2020/02/14 03:01:41;;;;;;;1.38;1.28;;;;;;;18.32;39.90;100176.23;;;;-52
2020/02/14 03:04:42;;;;;;;1.40;1.30;;;;;;;18.31;39.90;100176.97;;;;-52
2020/02/14 03:07:41;;;;;;;1.42;1.32;;;;;;;18.30;39.94;100180.33;;;;-52
2020/02/14 03:10:41;;;;;;;1.50;1.40;;;;;;;18.29;39.92;100195.60;;;;-52
2020/02/14 03:13:41;;;;;;;1.40;1.30;;;;;;;18.28;39.90;100202.75;;;;-52
2020/02/14 03:16:41;;;;;;;1.84;1.52;;;;;;;18.28;39.93;100201.20;;;;-52
2020/02/14 03:19:41;;;;;;;1.63;1.40;;;;;;;18.27;39.93;100219.38;;;;-52
2020/02/14 03:22:41;;;;;;;1.50;1.40;;;;;;;18.26;39.94;100230.73;;;;-52
2020/02/14 03:25:41;;;;;;;1.44;1.34;;;;;;;18.26;39.94;100239.05;;;;-52
2020/02/14 03:28:41;;;;;;;1.76;1.43;;;;;;;18.25;39.96;100248.03;;;;-52
2020/02/14 03:31:41;;;;;;;1.47;1.37;;;;;;;18.25;39.95;100253.32;;;;-52
2020/02/14 03:34:41;;;;;;;1.41;1.30;;;;;;;18.24;39.93;100262.13;;;;-52
2020/02/14 03:37:41;;;;;;;1.39;1.29;;;;;;;18.23;39.99;100264.55;;;;-52
2020/02/14 03:40:41;;;;;;;1.42;1.32;;;;;;;18.22;39.95;100268.97;;;;-52
2020/02/14 03:43:41;;;;;;;1.39;1.29;;;;;;;18.21;39.96;100273.66;;;;-52
2020/02/14 03:46:42;;;;;;;1.33;1.21;;;;;;;18.21;39.96;100282.52;;;;-52
2020/02/14 03:49:41;;;;;;;1.40;1.30;;;;;;;18.20;40.00;100288.98;;;;-52
2020/02/14 03:52:41;;;;;;;1.44;1.34;;;;;;;18.20;40.00;100297.58;;;;-50
2020/02/14 03:55:42;;;;;;;1.44;1.34;;;;;;;18.19;39.97;100305.66;;;;-49
2020/02/14 03:58:41;;;;;;;1.41;1.31;;;;;;;18.18;40.01;100321.83;;;;-50
2020/02/14 04:01:41;;;;;;;1.36;1.26;;;;;;;18.17;39.97;100332.25;;;;-50
2020/02/14 04:04:42;;;;;;;1.47;1.37;;;;;;;18.17;40.00;100341.73;;;;-50
2020/02/14 04:07:41;;;;;;;1.41;1.31;;;;;;;18.16;39.98;100344.29;;;;-49
2020/02/14 04:13:41;;;;;;;1.33;1.23;;;;;;;18.14;40.04;100352.99;;;;-49
2020/02/14 04:16:41;;;;;;;1.31;1.21;;;;;;;18.14;40.00;100360.91;;;;-50
2020/02/14 04:19:42;;;;;;;1.30;1.20;;;;;;;18.13;40.02;100366.70;;;;-50
2020/02/14 04:22:42;;;;;;;1.50;1.21;;;;;;;18.12;40.03;100376.45;;;;-49
2020/02/14 04:25:41;;;;;;;1.30;1.20;;;;;;;18.12;40.03;100381.54;;;;-50
2020/02/14 04:28:43;;;;;;;1.41;1.31;;;;;;;18.12;40.07;100383.81;;;;-49
2020/02/14 04:31:41;;;;;;;1.40;1.30;;;;;;;18.12;40.05;100379.36;;;;-49
2020/02/14 04:34:41;;;;;;;1.30;1.20;;;;;;;18.10;40.07;100381.59;;;;-50
2020/02/14 04:37:41;;;;;;;1.23;1.15;;;;;;;18.09;40.02;100386.23;;;;-51
2020/02/14 04:40:41;;;;;;;1.37;1.21;;;;;;;18.08;40.05;100392.54;;;;-50
2020/02/14 04:43:41;;;;;;;1.30;1.20;;;;;;;18.09;40.01;100395.36;;;;-50
2020/02/14 04:46:41;;;;;;;1.31;1.21;;;;;;;18.08;39.99;100398.83;;;;-50
2020/02/14 04:49:41;;;;;;;1.30;1.20;;;;;;;18.10;40.02;100414.20;;;;-51
2020/02/14 04:52:41;;;;;;;1.66;1.38;;;;;;;18.11;40.01;100412.40;;;;-50
2020/02/14 04:55:41;;;;;;;1.39;1.29;;;;;;;18.13;40.01;100421.02;;;;-50
2020/02/14 04:58:42;;;;;;;1.28;1.19;;;;;;;18.14;40.00;100428.19;;;;-50
2020/02/14 05:01:41;;;;;;;1.29;1.19;;;;;;;18.17;39.99;100434.59;;;;-50
2020/02/14 05:04:41;;;;;;;1.39;1.29;;;;;;;18.20;39.96;100437.15;;;;-50
2020/02/14 05:07:42;;;;;;;1.33;1.23;;;;;;;18.23;39.93;100440.73;;;;-50
2020/02/14 05:10:42;;;;;;;1.40;1.30;;;;;;;18.27;40.01;100449.16;;;;-51
2020/02/14 05:13:42;;;;;;;1.37;1.27;;;;;;;18.30;39.84;100445.23;;;;-50
2020/02/14 05:16:42;;;;;;;1.41;1.28;;;;;;;18.35;39.86;100454.86;;;;-50
2020/02/14 05:19:41;;;;;;;1.33;1.23;;;;;;;18.39;40.01;100457.34;;;;-50
2020/02/14 05:22:41;;;;;;;1.23;1.13;;;;;;;18.43;39.91;100459.27;;;;-50
2020/02/14 05:25:42;;;;;;;1.33;1.23;;;;;;;18.46;39.93;100467.94;;;;-49
2020/02/14 05:28:42;;;;;;;1.43;1.33;;;;;;;18.49;39.95;100475.39;;;;-49
2020/02/14 05:31:41;;;;;;;1.35;1.25;;;;;;;18.54;40.00;100492.08;;;;-50
2020/02/14 05:34:42;;;;;;;1.07;1.07;;;;;;;18.58;40.10;100502.61;;;;-51
2020/02/14 05:37:42;;;;;;;1.38;1.28;;;;;;;18.61;40.06;100510.09;;;;-49
2020/02/14 05:40:49;;;;;;;1.16;1.11;;;;;;;18.64;40.11;100512.20;;;;-50
2020/02/14 05:43:49;;;;;;;1.64;1.25;;;;;;;18.68;39.99;100513.23;;;;-49
2020/02/14 05:46:42;;;;;;;1.26;1.13;;;;;;;18.71;40.08;100512.32;;;;-50
2020/02/14 05:49:41;;;;;;;1.29;1.19;;;;;;;18.74;40.03;100512.30;;;;-50
2020/02/14 05:52:42;;;;;;;1.17;1.09;;;;;;;18.78;40.04;100513.55;;;;-50
2020/02/14 05:55:42;;;;;;;1.11;1.10;;;;;;;18.83;40.04;100520.78;;;;-50
2020/02/14 05:58:41;;;;;;;1.30;1.20;;;;;;;18.86;40.04;100533.19;;;;-51
2020/02/14 06:01:42;;;;;;;1.35;1.25;;;;;;;18.89;40.10;100537.97;;;;-50
2020/02/14 06:04:42;;;;;;;1.11;1.03;;;;;;;18.91;40.05;100549.99;;;;-50
2020/02/14 06:07:42;;;;;;;1.30;1.20;;;;;;;18.95;40.10;100561.86;;;;-50
2020/02/14 06:10:42;;;;;;;1.40;1.30;;;;;;;18.97;40.09;100572.44;;;;-50
2020/02/14 06:13:42;;;;;;;1.29;1.19;;;;;;;18.99;40.03;100576.11;;;;-50
2020/02/14 06:16:41;;;;;;;1.28;1.18;;;;;;;19.01;39.95;100580.39;;;;-49
2020/02/14 06:19:41;;;;;;;1.30;1.20;;;;;;;19.02;40.03;100589.08;;;;-52
2020/02/14 06:22:41;;;;;;;1.07;1.06;;;;;;;19.05;40.07;100597.89;;;;-52
2020/02/14 06:25:41;;;;;;;1.33;1.23;;;;;;;19.07;39.98;100611.14;;;;-52
2020/02/14 06:28:41;;;;;;;1.19;1.10;;;;;;;19.09;39.99;100618.27;;;;-52
2020/02/14 06:31:41;;;;;;;1.32;1.22;;;;;;;19.12;39.97;100620.59;;;;-52
2020/02/14 06:34:41;;;;;;;1.33;1.23;;;;;;;19.12;39.89;100630.88;;;;-52
2020/02/14 06:37:41;;;;;;;1.21;1.11;;;;;;;19.14;39.96;100629.73;;;;-52
2020/02/14 06:40:41;;;;;;;1.00;1.00;;;;;;;19.15;39.93;100639.66;;;;-52
2020/02/14 06:43:41;;;;;;;1.17;1.09;;;;;;;19.17;39.90;100641.26;;;;-52
2020/02/14 06:46:41;;;;;;;1.42;1.27;;;;;;;19.18;39.82;100647.11;;;;-52
2020/02/14 06:49:42;;;;;;;1.21;1.11;;;;;;;19.19;39.89;100654.19;;;;-52
2020/02/14 06:52:41;;;;;;;1.08;1.08;;;;;;;19.21;39.83;100668.52;;;;-53
2020/02/14 06:55:41;;;;;;;1.30;1.07;;;;;;;19.22;39.83;100683.91;;;;-52
2020/02/14 06:58:41;;;;;;;1.22;1.12;;;;;;;19.23;39.80;100688.55;;;;-52
2020/02/14 07:01:41;;;;;;;1.00;1.00;;;;;;;19.24;39.80;100697.90;;;;-52
2020/02/14 07:04:41;;;;;;;1.06;1.06;;;;;;;19.25;39.76;100710.58;;;;-52
2020/02/14 07:07:41;;;;;;;1.27;1.17;;;;;;;19.28;39.79;100720.27;;;;-52
2020/02/14 07:10:41;;;;;;;1.19;1.09;;;;;;;19.29;39.75;100730.14;;;;-52
2020/02/14 07:18:41;;;;;;;1.00;1.00;;;;;;;19.31;39.74;100758.66;;;;-52
2020/02/14 07:21:41;;;;;;;1.23;1.11;;;;;;;19.32;39.77;100763.91;;;;-52
2020/02/14 07:24:41;;;;;;;1.33;1.23;;;;;;;19.33;39.78;100768.58;;;;-52
2020/02/14 07:27:41;;;;;;;1.11;1.01;;;;;;;19.34;39.69;100773.05;;;;-52
2020/02/14 07:30:41;;;;;;;1.08;1.06;;;;;;;19.35;39.68;100774.94;;;;-52
2020/02/14 07:33:41;;;;;;;1.01;1.01;;;;;;;19.36;39.61;100781.36;;;;-52
2020/02/14 07:36:41;;;;;;;1.30;1.20;;;;;;;19.37;39.65;100785.97;;;;-52
2020/02/14 07:39:41;;;;;;;1.03;0.99;;;;;;;19.39;39.65;100795.58;;;;-52
2020/02/14 07:42:41;;;;;;;1.13;1.06;;;;;;;19.40;39.66;100803.43;;;;-52
2020/02/14 07:45:41;;;;;;;1.10;1.10;;;;;;;19.40;39.67;100807.34;;;;-52
2020/02/14 07:48:41;;;;;;;1.23;1.15;;;;;;;19.42;39.56;100819.88;;;;-50
2020/02/14 07:51:41;;;;;;;1.13;1.03;;;;;;;19.43;39.55;100824.14;;;;-52
2020/02/14 07:54:41;;;;;;;1.18;1.08;;;;;;;19.44;39.55;100836.36;;;;-52
2020/02/14 07:57:41;;;;;;;1.10;1.04;;;;;;;19.44;39.56;100837.37;;;;-52
2020/02/14 08:00:41;;;;;;;1.27;1.17;;;;;;;19.45;39.53;100846.73;;;;-52
2020/02/14 08:03:41;;;;;;;1.18;1.07;;;;;;;19.46;39.57;100860.35;;;;-52
2020/02/14 08:06:41;;;;;;;1.15;1.07;;;;;;;19.47;39.59;100867.00;;;;-52
2020/02/14 08:09:41;;;;;;;1.00;1.00;;;;;;;19.48;39.49;100878.20;;;;-52
2020/02/14 08:12:41;;;;;;;1.09;1.05;;;;;;;19.50;39.49;100880.78;;;;-52
2020/02/14 08:15:41;;;;;;;1.23;1.13;;;;;;;19.51;39.53;100888.20;;;;-52
2020/02/14 08:18:41;;;;;;;1.27;1.13;;;;;;;19.52;39.48;100896.46;;;;-50
2020/02/14 08:21:43;;;;;;;1.28;1.10;;;;;;;19.50;39.46;100894.13;;;;-52
2020/02/14 08:24:58;;;;;;;1.17;1.07;;;;;;;19.52;39.47;100905.69;;;;-52
2020/02/14 08:30:41;;;;;;;1.13;1.07;;;;;;;19.55;39.41;100913.20;;;;-52
2020/02/14 08:33:41;;;;;;;1.11;1.09;;;;;;;19.54;39.39;100915.77;;;;-52
2020/02/14 08:36:41;;;;;;;3.29;1.12;;;;;;;19.54;39.51;100923.15;;;;-54
2020/02/14 08:39:41;;;;;;;5.52;1.20;;;;;;;19.56;39.69;100931.84;;;;-51
2020/02/14 08:42:41;;;;;;;1.17;1.07;;;;;;;19.57;39.93;100935.75;;;;-54
2020/02/14 08:45:41;;;;;;;1.11;1.00;;;;;;;19.59;40.22;100939.66;;;;-54
2020/02/14 08:48:41;;;;;;;1.64;1.01;;;;;;;19.60;39.99;100940.59;;;;-51
2020/02/14 08:51:41;;;;;;;1.20;1.10;;;;;;;19.61;39.86;100945.41;;;;-51
2020/02/14 08:54:41;;;;;;;1.32;1.19;;;;;;;19.63;40.16;100948.47;;;;-56
2020/02/14 08:57:41;;;;;;;1.94;1.30;;;;;;;19.66;40.67;100946.72;;;;-53
2020/02/14 09:00:41;;;;;;;1.20;1.10;;;;;;;19.67;40.34;100948.84;;;;-53
2020/02/14 09:03:41;;;;;;;1.16;0.99;;;;;;;19.68;40.44;100949.97;;;;-55
2020/02/14 09:06:41;;;;;;;1.19;1.00;;;;;;;19.70;40.28;100952.08;;;;-56
2020/02/14 09:09:41;;;;;;;1.16;1.06;;;;;;;19.74;40.70;100954.40;;;;-53
2020/02/14 09:12:41;;;;;;;1.14;1.04;;;;;;;19.76;40.80;100958.75;;;;-52
2020/02/14 09:15:41;;;;;;;1.18;1.07;;;;;;;19.76;40.54;100963.05;;;;-48
2020/02/14 09:18:41;;;;;;;1.23;1.13;;;;;;;19.78;40.62;100971.94;;;;-51
2020/02/14 09:21:41;;;;;;;1.31;1.10;;;;;;;19.80;40.69;100976.17;;;;-56
2020/02/14 09:24:41;;;;;;;1.25;1.12;;;;;;;19.81;40.17;100980.81;;;;-52
2020/02/14 09:27:47;;;;;;;1.89;1.14;;;;;;;19.82;40.24;100989.23;;;;-50
2020/02/14 09:30:47;;;;;;;1.30;1.20;;;;;;;19.85;40.63;100993.08;;;;-58
2020/02/14 09:37:42;;;;;;;1.00;1.00;;;;;;;19.86;40.17;101002.92;;;;-51
2020/02/14 09:40:41;;;;;;;2.64;1.20;;;;;;;19.88;40.26;101003.69;;;;-50
2020/02/14 09:43:41;;;;;;;1.09;0.91;;;;;;;19.90;40.29;101005.47;;;;-52
2020/02/14 09:46:41;;;;;;;1.57;1.00;;;;;;;19.93;40.96;101008.08;;;;-56
2020/02/14 09:49:41;;;;;;;1.01;1.00;;;;;;;19.94;40.25;101018.98;;;;-57
2020/02/14 09:52:41;;;;;;;1.19;1.09;;;;;;;19.96;40.78;101018.06;;;;-56
2020/02/14 09:55:41;;;;;;;2.23;0.95;;;;;;;19.97;40.15;101024.17;;;;-55
2020/02/14 09:58:41;;;;;;;1.31;1.21;;;;;;;19.97;40.34;101033.89;;;;-55
2020/02/14 10:01:41;;;;;;;1.27;1.00;;;;;;;19.97;40.46;101040.23;;;;-51
2020/02/14 10:04:41;;;;;;;2.09;0.93;;;;;;;19.97;40.14;101045.73;;;;-58
2020/02/14 10:07:41;;;;;;;1.03;0.92;;;;;;;19.97;39.90;101053.82;;;;-53
2020/02/14 10:10:41;;;;;;;1.23;0.96;;;;;;;19.97;40.28;101055.66;;;;-51
2020/02/14 10:13:41;;;;;;;1.15;1.05;;;;;;;19.98;40.41;101061.34;;;;-49
2020/02/14 10:16:41;;;;;;;1.47;1.10;;;;;;;19.99;40.15;101067.33;;;;-50
2020/02/14 10:19:41;;;;;;;1.19;1.09;;;;;;;19.99;40.34;101075.77;;;;-50
2020/02/14 10:22:41;;;;;;;1.19;1.09;;;;;;;19.99;40.21;101084.27;;;;-50
2020/02/14 10:25:41;;;;;;;1.05;0.95;;;;;;;19.99;40.20;101095.33;;;;-47
2020/02/14 10:28:41;;;;;;;1.61;1.13;;;;;;;19.99;40.16;101098.35;;;;-56
2020/02/14 10:31:41;;;;;;;1.13;1.04;;;;;;;19.98;40.05;101105.20;;;;-56
2020/02/14 10:34:41;;;;;;;1.27;1.05;;;;;;;19.97;39.92;101111.33;;;;-56
2020/02/14 10:37:41;;;;;;;1.21;1.10;;;;;;;19.95;39.85;101116.65;;;;-56
2020/02/14 10:40:41;;;;;;;1.13;1.00;;;;;;;19.95;39.85;101129.34;;;;-56
2020/02/14 10:43:41;;;;;;;1.01;1.00;;;;;;;19.92;39.76;101134.77;;;;-63
2020/02/14 10:46:55;;;;;;;1.20;1.09;;;;;;;19.91;39.78;101138.06;;;;-61
2020/02/14 10:49:41;;;;;;;1.33;1.13;;;;;;;19.90;39.76;101144.11;;;;-64
2020/02/14 10:52:41;;;;;;;3.59;1.36;;;;;;;19.90;39.89;101142.69;;;;-51
2020/02/14 10:55:41;;;;;;;4.67;1.37;;;;;;;19.93;40.43;101149.67;;;;-46
2020/02/14 10:58:41;;;;;;;2.53;1.21;;;;;;;19.97;40.95;101155.05;;;;-47
2020/02/14 11:01:41;;;;;;;4.17;1.13;;;;;;;20.02;41.07;101155.19;;;;-57
2020/02/14 11:04:41;;;;;;;3.95;1.41;;;;;;;20.02;40.20;101156.58;;;;-46
2020/02/14 11:07:41;;;;;;;2.25;1.19;;;;;;;20.02;40.24;101152.72;;;;-46
2020/02/14 11:10:41;;;;;;;2.53;1.23;;;;;;;20.00;40.33;101154.75;;;;-45
2020/02/14 11:13:41;;;;;;;3.25;1.36;;;;;;;20.01;40.11;101155.85;;;;-47
2020/02/14 11:16:41;;;;;;;2.57;1.30;;;;;;;20.02;40.17;101156.41;;;;-47
2020/02/14 11:19:41;;;;;;;3.51;1.21;;;;;;;20.03;40.08;101162.17;;;;-46
2020/02/14 11:22:41;;;;;;;3.16;1.12;;;;;;;20.03;40.05;101157.74;;;;-47
2020/02/14 11:25:41;;;;;;;3.60;1.20;;;;;;;20.03;40.10;101154.91;;;;-47
2020/02/14 11:28:41;;;;;;;2.91;1.31;;;;;;;20.04;40.06;101151.27;;;;-46
2020/02/14 11:31:41;;;;;;;1.47;1.17;;;;;;;20.06;40.03;101159.02;;;;-47
2020/02/14 11:34:41;;;;;;;2.59;1.18;;;;;;;20.06;39.98;101153.61;;;;-47
2020/02/14 11:37:41;;;;;;;4.31;1.37;;;;;;;20.06;39.99;101155.23;;;;-46
2020/02/14 11:40:41;;;;;;;2.01;1.17;;;;;;;20.08;39.94;101162.21;;;;-47
2020/02/14 11:43:41;;;;;;;4.27;1.30;;;;;;;20.08;39.93;101166.91;;;;-46
2020/02/14 11:46:41;;;;;;;2.00;1.20;;;;;;;20.09;39.92;101167.02;;;;-47
2020/02/14 11:49:41;;;;;;;2.41;1.18;;;;;;;20.11;39.94;101162.93;;;;-46
2020/02/14 11:52:41;;;;;;;2.07;1.11;;;;;;;20.11;39.88;101160.92;;;;-46
2020/02/14 11:55:41;;;;;;;1.67;1.33;;;;;;;20.12;39.86;101163.82;;;;-46
2020/02/14 11:58:41;;;;;;;2.50;1.09;;;;;;;20.13;39.81;101166.55;;;;-47
2020/02/14 12:01:41;;;;;;;1.58;1.21;;;;;;;20.15;39.81;101162.98;;;;-47
2020/02/14 12:04:41;;;;;;;1.91;1.35;;;;;;;20.15;39.85;101166.09;;;;-46
2020/02/14 12:07:41;;;;;;;3.14;1.25;;;;;;;20.16;39.76;101168.56;;;;-47
2020/02/14 12:10:41;;;;;;;2.28;1.30;;;;;;;20.17;39.75;101167.11;;;;-47
2020/02/14 12:13:41;;;;;;;1.75;1.17;;;;;;;20.18;39.76;101162.87;;;;-47
2020/02/14 12:16:41;;;;;;;2.27;1.18;;;;;;;20.18;39.75;101156.94;;;;-47
2020/02/14 12:19:41;;;;;;;1.33;1.17;;;;;;;20.18;39.75;101157.84;;;;-47
2020/02/14 12:22:41;;;;;;;1.74;1.23;;;;;;;20.19;39.71;101155.80;;;;-46
2020/02/14 12:25:41;;;;;;;1.67;1.19;;;;;;;20.19;39.72;101152.29;;;;-45
2020/02/14 12:28:41;;;;;;;2.93;1.21;;;;;;;20.20;39.69;101153.29;;;;-47
2020/02/14 12:31:41;;;;;;;2.33;1.27;;;;;;;20.20;39.63;101152.17;;;;-47
2020/02/14 12:34:41;;;;;;;1.91;1.09;;;;;;;20.19;39.62;101155.75;;;;-46
2020/02/14 12:37:41;;;;;;;2.05;1.25;;;;;;;20.19;39.68;101159.17;;;;-46
2020/02/14 12:40:41;;;;;;;1.95;1.31;;;;;;;20.19;39.61;101163.19;;;;-46
2020/02/14 12:43:41;;;;;;;1.35;1.10;;;;;;;20.19;39.59;101160.28;;;;-47
2020/02/14 12:46:41;;;;;;;1.54;1.19;;;;;;;20.18;39.63;101161.06;;;;-50
2020/02/14 12:49:41;;;;;;;1.52;1.20;;;;;;;20.19;39.56;101160.17;;;;-47
2020/02/14 12:52:41;;;;;;;1.33;1.11;;;;;;;20.18;39.62;101166.48;;;;-47
2020/02/14 12:55:41;;;;;;;2.51;1.23;;;;;;;20.18;39.60;101172.35;;;;-51
2020/02/14 12:58:42;;;;;;;1.63;1.20;;;;;;;20.18;39.55;101178.23;;;;-52
2020/02/14 13:02:03;;;;;;;2.06;1.14;;;;;;;20.16;39.57;101175.11;;;;-47
2020/02/14 13:05:06;;;;;;;1.03;0.95;;;;;;;20.17;39.57;101182.54;;;;-46
2020/02/14 13:07:51;;;;;;;1.31;1.20;;;;;;;20.18;39.50;101186.61;;;;-50
2020/02/14 13:10:49;;;;;;;1.61;1.11;;;;;;;20.17;39.58;101180.30;;;;-49
2020/02/14 13:13:47;;;;;;;4.48;1.95;;;;;;;20.13;39.39;101182.83;;;;-45
2020/02/14 13:19:46;;;;;;;3.61;1.80;;;;;;;20.11;39.19;101182.21;;;;-48
2020/02/14 13:22:54;;;;;;;4.07;1.87;;;;;;;20.10;39.40;101185.52;;;;-47
2020/02/14 13:25:47;;;;;;;5.81;1.84;;;;;;;20.11;39.28;101178.47;;;;-50
2020/02/14 13:35:41;;;;;;;2.10;1.43;;;;;;;20.15;39.25;101185.56;;;;-49
2020/02/14 13:38:41;;;;;;;2.75;1.44;;;;;;;20.16;39.32;101189.26;;;;-50
2020/02/14 13:41:41;;;;;;;2.41;1.50;;;;;;;20.16;39.36;101198.02;;;;-51
2020/02/14 13:44:41;;;;;;;3.35;1.55;;;;;;;20.17;39.36;101208.09;;;;-49
2020/02/14 13:47:41;;;;;;;4.13;1.56;;;;;;;20.18;39.33;101210.00;;;;-49
2020/02/14 13:50:41;;;;;;;1.80;1.46;;;;;;;20.18;39.29;101211.43;;;;-53
2020/02/14 13:53:41;;;;;;;1.73;1.31;;;;;;;20.22;39.62;101215.17;;;;-53
2020/02/14 13:56:41;;;;;;;2.85;1.53;;;;;;;20.25;39.85;101218.97;;;;-51
2020/02/14 13:59:41;;;;;;;2.90;1.27;;;;;;;20.27;39.91;101217.63;;;;-51
2020/02/14 14:02:41;;;;;;;2.24;1.22;;;;;;;20.31;40.00;101219.64;;;;-50
2020/02/14 14:05:41;;;;;;;3.74;1.47;;;;;;;20.34;40.09;101222.53;;;;-55
2020/02/14 14:08:41;;;;;;;4.51;1.47;;;;;;;20.35;39.94;101225.95;;;;-52
2020/02/14 14:11:41;;;;;;;2.65;1.38;;;;;;;20.40;40.28;101228.85;;;;-52
2020/02/14 14:14:41;;;;;;;2.44;1.41;;;;;;;20.42;40.28;101232.52;;;;-59
2020/02/14 14:17:41;;;;;;;2.12;1.39;;;;;;;20.45;40.35;101235.16;;;;-51
2020/02/14 14:20:41;;;;;;;2.69;1.41;;;;;;;20.46;40.12;101235.47;;;;-52
2020/02/14 14:23:41;;;;;;;1.87;1.41;;;;;;;20.49;40.31;101235.59;;;;-52
2020/02/14 14:29:43;;;;;;;1.78;1.40;;;;;;;20.47;40.00;101249.36;;;;-52
2020/02/14 14:32:41;;;;;;;1.65;1.30;;;;;;;20.48;40.62;101251.70;;;;-50
2020/02/14 14:35:42;;;;;;;1.56;1.31;;;;;;;20.49;40.18;101257.34;;;;-53
2020/02/14 14:38:41;;;;;;;1.97;1.35;;;;;;;20.50;39.96;101257.84;;;;-53
2020/02/14 14:41:41;;;;;;;3.35;1.41;;;;;;;20.51;40.33;101250.30;;;;-56
2020/02/14 14:44:41;;;;;;;1.67;1.27;;;;;;;20.52;41.11;101250.06;;;;-53
2020/02/14 14:47:41;;;;;;;3.79;1.49;;;;;;;20.52;40.45;101247.05;;;;-52
2020/02/14 14:50:41;;;;;;;10.95;1.56;;;;;;;20.50;40.20;101246.44;;;;-52
2020/02/14 14:53:45;;;;;;;2.07;1.40;;;;;;;20.49;40.02;101251.70;;;;-52
2020/02/14 14:56:41;;;;;;;3.19;1.32;;;;;;;20.48;39.83;101259.48;;;;-52
2020/02/14 14:59:41;;;;;;;2.46;1.39;;;;;;;20.46;39.83;101257.06;;;;-52
2020/02/14 15:02:41;;;;;;;1.87;1.27;;;;;;;20.45;39.79;101250.42;;;;-52
2020/02/14 15:05:41;;;;;;;2.22;1.33;;;;;;;20.45;39.73;101254.89;;;;-52
2020/02/14 15:08:41;;;;;;;3.89;1.30;;;;;;;20.48;39.94;101261.03;;;;-51
2020/02/14 15:11:41;;;;;;;2.23;1.54;;;;;;;20.50;40.07;101263.34;;;;-54
2020/02/14 15:14:41;;;;;;;2.26;1.40;;;;;;;20.51;40.20;101258.67;;;;-52
2020/02/14 15:17:41;;;;;;;5.41;1.46;;;;;;;20.54;40.22;101257.17;;;;-53
2020/02/14 15:20:41;;;;;;;1.41;1.28;;;;;;;20.56;40.32;101257.73;;;;-53
2020/02/14 15:23:41;;;;;;;2.78;1.42;;;;;;;20.57;40.15;101257.61;;;;-53
2020/02/14 15:26:41;;;;;;;2.73;1.49;;;;;;;20.60;40.38;101262.19;;;;-54
2020/02/14 15:29:41;;;;;;;2.17;1.29;;;;;;;20.62;40.59;101264.08;;;;-52
2020/02/14 15:32:41;;;;;;;1.56;1.30;;;;;;;20.61;40.11;101267.28;;;;-53
2020/02/14 15:35:41;;;;;;;2.50;1.34;;;;;;;20.62;40.61;101267.87;;;;-57
2020/02/14 15:38:41;;;;;;;2.93;1.41;;;;;;;20.65;40.35;101265.65;;;;-56
2020/02/14 15:41:41;;;;;;;1.85;1.40;;;;;;;20.66;40.53;101271.06;;;;-56
2020/02/14 15:44:41;;;;;;;1.86;1.36;;;;;;;20.65;40.27;101281.59;;;;-56
2020/02/14 15:47:41;;;;;;;1.99;1.40;;;;;;;20.62;40.21;101280.37;;;;-52
2020/02/14 15:50:41;;;;;;;4.04;1.49;;;;;;;20.62;40.32;101285.73;;;;-52
2020/02/14 15:53:41;;;;;;;3.68;1.53;;;;;;;20.65;40.43;101286.97;;;;-58
2020/02/14 15:56:41;;;;;;;2.51;1.39;;;;;;;20.67;40.26;101289.09;;;;-54
2020/02/14 15:59:41;;;;;;;2.25;1.52;;;;;;;20.69;40.45;101287.27;;;;-53
2020/02/14 16:02:41;;;;;;;2.98;1.63;;;;;;;20.68;40.15;101287.97;;;;-53
2020/02/14 16:05:41;;;;;;;3.75;1.79;;;;;;;20.72;40.37;101295.63;;;;-55
2020/02/14 16:08:41;;;;;;;4.01;1.81;;;;;;;20.71;40.27;101302.83;;;;-54
2020/02/14 16:11:41;;;;;;;2.77;1.57;;;;;;;20.72;40.45;101300.77;;;;-51
2020/02/14 16:14:41;;;;;;;3.64;1.88;;;;;;;20.73;40.30;101300.09;;;;-61
2020/02/14 16:17:41;;;;;;;4.80;1.70;;;;;;;20.75;40.37;101309.42;;;;-55
2020/02/14 16:20:41;;;;;;;4.60;1.61;;;;;;;20.77;40.77;101312.72;;;;-52
2020/02/14 16:23:41;;;;;;;6.24;1.85;;;;;;;20.79;40.41;101309.26;;;;-52
2020/02/14 16:26:41;;;;;;;4.78;1.70;;;;;;;20.79;40.71;101316.41;;;;-53
2020/02/14 16:29:41;;;;;;;4.27;1.68;;;;;;;20.79;40.74;101313.79;;;;-55
2020/02/14 16:32:41;;;;;;;3.13;1.57;;;;;;;20.77;40.38;101317.59;;;;-51
2020/02/14 16:35:41;;;;;;;6.93;1.79;;;;;;;20.76;40.25;101318.03;;;;-54
2020/02/14 16:38:41;;;;;;;7.81;1.73;;;;;;;20.76;40.41;101322.02;;;;-52
2020/02/14 16:41:41;;;;;;;2.49;1.70;;;;;;;20.76;40.26;101326.98;;;;-56
2020/02/14 16:44:41;;;;;;;7.25;1.79;;;;;;;20.78;40.64;101326.42;;;;-58
2020/02/14 16:47:41;;;;;;;3.00;1.73;;;;;;;20.78;40.56;101329.22;;;;-51
2020/02/14 16:50:41;;;;;;;2.78;1.61;;;;;;;20.77;40.33;101326.48;;;;-51
2020/02/14 16:53:41;;;;;;;2.35;1.59;;;;;;;20.78;40.72;101330.86;;;;-57
2020/02/14 16:56:41;;;;;;;3.33;1.46;;;;;;;20.77;40.49;101334.38;;;;-57
2020/02/14 16:59:41;;;;;;;2.43;1.60;;;;;;;20.79;40.26;101335.66;;;;-54
2020/02/14 17:02:41;;;;;;;4.68;1.59;;;;;;;20.79;40.25;101343.95;;;;-55
2020/02/14 17:05:41;;;;;;;3.33;1.59;;;;;;;20.80;40.61;101338.33;;;;-54
2020/02/14 17:08:41;;;;;;;2.56;1.55;;;;;;;20.82;40.55;101354.50;;;;-52
2020/02/14 17:11:41;;;;;;;2.00;1.60;;;;;;;20.80;40.27;101362.50;;;;-53
2020/02/14 17:14:41;;;;;;;3.46;1.54;;;;;;;20.80;40.15;101368.13;;;;-54
2020/02/14 17:17:41;;;;;;;4.22;1.62;;;;;;;20.79;40.46;101371.97;;;;-52
2020/02/14 17:20:41;;;;;;;2.15;1.55;;;;;;;20.79;40.46;101375.34;;;;-53